METAR Data
IDs: Format: Raw Decoded Include TAF

Data at: 1316 UTC 20 Oct 2021

LIBR 201250Z 07009KT CAVOK 19/13 Q1026